Time;durP1;ratioP1;P1;durP2;ratioP2;P2;SDS_P1;SDS_P2;PMS_P1;PMS_P2;Temp;Humidity;BMP_temperature;BMP_pressure;BME280_temperature;BME280_humidity;BME280_pressure;Samples;Min_cycle;Max_cycle;Signal;HPM_P1;HPM_P2
2022/07/01 00:01:00;;;;;;;7.72;7.03;;;19.50;99.90;;;;;;4338685;28;10000493;-77
2022/07/01 00:03:26;;;;;;;8.27;7.35;;;19.40;99.90;;;;;;5041894;28;20413;-77
2022/07/01 00:05:51;;;;;;;7.47;6.78;;;19.40;99.90;;;;;;5031181;28;20039;-77
2022/07/01 00:08:17;;;;;;;7.28;6.57;;;19.40;99.90;;;;;;5036331;28;20082;-77
2022/07/01 00:10:42;;;;;;;7.85;6.88;;;19.30;99.90;;;;;;5043443;28;20476;-78
2022/07/01 00:13:08;;;;;;;6.68;6.07;;;19.10;99.90;;;;;;5053442;28;20021;-78
2022/07/01 00:15:34;;;;;;;6.57;5.97;;;19.00;99.90;;;;;;5040517;28;20032;-77
2022/07/01 00:17:59;;;;;;;6.65;5.85;;;19.00;99.90;;;;;;5030024;28;20033;-78
2022/07/01 00:20:25;;;;;;;6.43;5.82;;;19.00;99.90;;;;;;5033013;28;20029;-77
2022/07/01 00:22:50;;;;;;;6.53;5.93;;;18.90;99.90;;;;;;5042651;28;20363;-77
2022/07/01 00:25:16;;;;;;;5.72;5.22;;;18.90;99.90;;;;;;5040825;28;20082;-78
2022/07/01 00:27:42;;;;;;;5.00;4.57;;;18.80;99.90;;;;;;5044277;28;20032;-78
2022/07/01 00:30:09;;;;;;;5.18;4.68;;;18.70;99.90;;;;;;5033317;28;20535;-78
2022/07/01 00:32:35;;;;;;;5.47;4.95;;;18.80;99.90;;;;;;5040903;28;20067;-77
2022/07/01 00:35:01;;;;;;;5.38;4.88;;;18.70;99.90;;;;;;5035315;28;20071;-78
2022/07/01 00:37:26;;;;;;;6.07;4.50;;;18.70;99.90;;;;;;5046539;28;20354;-77
2022/07/01 00:39:52;;;;;;;6.85;4.75;;;18.80;99.90;;;;;;5041369;28;20029;-78
2022/07/01 00:42:17;;;;;;;6.13;4.60;;;18.70;99.90;;;;;;5035704;28;20273;-77
2022/07/01 00:44:43;;;;;;;4.85;4.35;;;18.60;99.90;;;;;;5061478;28;20028;-78
2022/07/01 00:47:13;;;;;;;5.15;4.32;;;18.60;99.90;;;;;;5053236;28;20051;-78
2022/07/01 00:49:40;;;;;;;5.20;4.70;;;18.60;99.90;;;;;;5032182;28;20037;-78
2022/07/01 00:52:08;;;;;;;4.53;3.38;;;18.50;99.90;;;;;;5040961;28;20036;-77
2022/07/01 00:54:36;;;;;;;3.40;2.97;;;18.50;99.90;;;;;;5041633;28;20036;-78
2022/07/01 00:57:09;;;;;;;2.90;2.58;;;18.50;99.90;;;;;;5040123;28;20677;-77
2022/07/01 00:59:36;;;;;;;3.10;2.50;;;18.50;99.90;;;;;;5034307;28;20029;-77
2022/07/01 01:02:03;;;;;;;4.20;2.83;;;18.50;99.90;;;;;;5039722;28;20029;-77
2022/07/01 01:04:29;;;;;;;4.93;2.70;;;18.40;99.90;;;;;;5042080;28;20028;-78
2022/07/01 01:06:55;;;;;;;3.47;2.55;;;18.40;99.90;;;;;;5043349;28;20393;-78
2022/07/01 01:09:21;;;;;;;2.83;2.50;;;18.40;99.90;;;;;;5029912;28;20184;-78
2022/07/01 01:11:47;;;;;;;3.03;2.83;;;18.40;99.90;;;;;;5042470;28;20044;-77
2022/07/01 01:14:13;;;;;;;2.92;2.50;;;18.40;99.90;;;;;;5057779;28;20074;-77
2022/07/01 01:16:39;;;;;;;2.50;2.30;;;18.30;99.90;;;;;;5046764;28;20033;-77
2022/07/01 01:19:05;;;;;;;2.95;2.72;;;18.30;99.90;;;;;;5044659;28;20503;-78
2022/07/01 01:21:32;;;;;;;3.30;2.70;;;18.40;99.90;;;;;;5042602;28;20180;-78
2022/07/01 01:23:58;;;;;;;2.92;2.30;;;18.30;99.90;;;;;;5046429;28;20751;-78
2022/07/01 01:26:25;;;;;;;3.40;3.10;;;18.30;99.90;;;;;;5045993;28;20111;-78
2022/07/01 01:28:51;;;;;;;2.75;2.55;;;18.30;99.90;;;;;;5045209;28;20366;-78
2022/07/01 01:31:18;;;;;;;2.40;2.20;;;18.30;99.90;;;;;;5040490;28;20090;-78
2022/07/01 01:33:44;;;;;;;2.60;2.40;;;18.20;99.90;;;;;;5044739;28;20103;-78
2022/07/01 01:36:09;;;;;;;3.05;2.28;;;18.20;99.90;;;;;;5042924;28;20083;-78
2022/07/01 01:38:36;;;;;;;2.40;2.20;;;18.20;99.90;;;;;;5039841;28;20406;-78
2022/07/01 01:41:05;;;;;;;3.03;2.80;;;18.20;99.90;;;;;;5032814;28;20048;-78
2022/07/01 01:43:34;;;;;;;3.05;2.75;;;18.20;99.90;;;;;;5040458;28;20031;-78
2022/07/01 01:46:01;;;;;;;3.47;2.30;;;18.20;99.90;;;;;;5048622;28;20071;-78
2022/07/01 01:48:27;;;;;;;3.17;2.20;;;18.20;99.90;;;;;;5042873;28;20033;-77
2022/07/01 01:50:53;;;;;;;2.30;2.10;;;18.10;99.90;;;;;;5042071;28;20511;-78
2022/07/01 01:53:18;;;;;;;2.20;2.00;;;18.10;99.90;;;;;;5039718;28;20017;-78
2022/07/01 01:55:44;;;;;;;1.90;1.80;;;18.10;99.90;;;;;;5042815;28;20486;-78
2022/07/01 01:58:09;;;;;;;2.22;1.90;;;18.00;99.90;;;;;;5026774;28;20040;-77
2022/07/01 02:00:35;;;;;;;2.13;1.95;;;18.00;99.90;;;;;;5042375;28;20448;-78
2022/07/01 02:03:01;;;;;;;2.00;1.90;;;18.00;99.90;;;;;;5041159;28;20613;-78
2022/07/01 02:05:26;;;;;;;1.70;1.60;;;17.90;99.90;;;;;;5044381;28;20095;-78
2022/07/01 02:07:52;;;;;;;1.90;1.80;;;17.80;99.90;;;;;;5039872;28;20133;-78
2022/07/01 02:10:18;;;;;;;3.08;1.70;;;17.80;99.90;;;;;;5046328;28;20116;-78
2022/07/01 02:12:43;;;;;;;2.30;2.10;;;17.80;99.90;;;;;;5044281;28;20424;-78
2022/07/01 02:15:09;;;;;;;2.10;2.00;;;17.80;99.90;;;;;;5038844;28;20470;-78
2022/07/01 02:17:35;;;;;;;3.63;1.80;;;17.70;99.90;;;;;;5042743;28;20396;-78
2022/07/01 02:20:01;;;;;;;1.80;1.70;;;17.70;99.90;;;;;;5038060;28;20159;-78
2022/07/01 02:22:26;;;;;;;2.08;1.90;;;17.60;99.90;;;;;;5037339;28;20381;-78
2022/07/01 02:24:52;;;;;;;3.05;1.90;;;17.60;99.90;;;;;;5039042;28;20029;-78
2022/07/01 02:27:18;;;;;;;3.90;1.60;;;17.60;99.90;;;;;;5038273;28;20331;-78
2022/07/01 02:29:44;;;;;;;2.88;1.55;;;17.70;99.90;;;;;;5035859;28;20083;-78
2022/07/01 02:32:09;;;;;;;2.20;2.05;;;17.70;99.90;;;;;;5041120;28;20040;-78
2022/07/01 02:34:35;;;;;;;2.72;1.80;;;17.70;99.90;;;;;;5045521;28;20458;-78
2022/07/01 02:37:01;;;;;;;1.90;1.80;;;17.80;99.90;;;;;;5042808;28;20094;-78
2022/07/01 02:39:26;;;;;;;2.22;2.03;;;17.70;99.90;;;;;;5046583;28;20094;-78
2022/07/01 02:44:36;;;;;;;2.45;2.25;;;17.70;99.90;;;;;;5047586;28;20091;-78
2022/07/01 02:47:02;;;;;;;3.78;2.60;;;17.70;99.90;;;;;;5043010;28;20064;-78
2022/07/01 02:49:27;;;;;;;2.60;2.40;;;17.60;99.90;;;;;;5043518;28;20075;-78
2022/07/01 02:51:53;;;;;;;2.83;2.63;;;17.60;99.90;;;;;;5043778;28;20540;-78
2022/07/01 02:54:19;;;;;;;2.63;2.45;;;17.60;99.90;;;;;;5044087;28;20029;-78
2022/07/01 02:56:45;;;;;;;2.20;2.10;;;17.60;99.90;;;;;;5044012;28;20396;-78
2022/07/01 02:59:10;;;;;;;2.92;2.72;;;17.60;99.90;;;;;;5038922;28;20021;-78
2022/07/01 03:01:36;;;;;;;3.33;3.13;;;17.60;99.90;;;;;;5045176;28;20125;-78
2022/07/01 03:04:01;;;;;;;3.55;3.25;;;17.50;99.90;;;;;;5039457;28;20024;-78
2022/07/01 03:06:27;;;;;;;3.70;3.40;;;17.50;99.90;;;;;;5039805;28;20356;-78
2022/07/01 03:08:53;;;;;;;3.00;2.80;;;17.50;99.90;;;;;;5041253;28;20037;-78
2022/07/01 03:11:19;;;;;;;3.42;3.20;;;17.50;99.90;;;;;;5040158;28;20264;-78
2022/07/01 03:13:44;;;;;;;4.75;4.13;;;17.60;99.90;;;;;;5047387;28;20021;-78
2022/07/01 03:16:10;;;;;;;4.28;3.97;;;17.50;99.90;;;;;;5040597;28;20122;-78
2022/07/01 03:18:36;;;;;;;4.78;4.38;;;17.50;99.90;;;;;;5043770;28;20512;-78
2022/07/01 03:21:01;;;;;;;4.90;4.50;;;17.50;99.90;;;;;;5044836;28;20083;-78
2022/07/01 03:23:27;;;;;;;4.70;4.30;;;17.50;99.90;;;;;;5036107;28;20029;-78
2022/07/01 03:25:52;;;;;;;5.15;4.65;;;17.40;99.90;;;;;;5038182;28;20098;-78
2022/07/01 03:28:18;;;;;;;5.22;4.82;;;17.40;99.90;;;;;;5034815;28;20176;-77
2022/07/01 03:30:43;;;;;;;5.65;5.20;;;17.40;99.90;;;;;;5042094;28;20037;-78
2022/07/01 03:33:09;;;;;;;6.15;5.55;;;17.30;99.90;;;;;;5033912;28;20033;-77
2022/07/01 03:35:45;;;;;;;5.45;5.05;;;17.30;99.90;;;;;;5040658;28;20116;-78
2022/07/01 03:38:12;;;;;;;5.40;5.00;;;17.30;99.90;;;;;;5035183;28;20037;-77
2022/07/01 03:40:37;;;;;;;5.65;5.15;;;17.20;99.90;;;;;;5043256;28;20025;-78
2022/07/01 03:43:04;;;;;;;5.70;5.20;;;17.20;99.90;;;;;;5030933;28;20719;-78
2022/07/01 03:45:30;;;;;;;5.82;5.35;;;17.20;99.90;;;;;;5038176;28;20143;-78
2022/07/01 03:47:56;;;;;;;6.43;5.88;;;17.20;99.90;;;;;;5042657;28;20121;-78
2022/07/01 03:50:23;;;;;;;7.38;6.68;;;17.20;99.90;;;;;;5032936;28;20229;-78
2022/07/01 03:52:48;;;;;;;6.97;6.38;;;17.30;99.90;;;;;;5043132;28;20535;-78
2022/07/01 03:55:16;;;;;;;7.72;7.00;;;17.30;99.90;;;;;;5036513;28;20033;-79
2022/07/01 03:57:41;;;;;;;6.88;6.28;;;17.30;99.90;;;;;;5039122;28;20425;-78
2022/07/01 04:00:08;;;;;;;7.20;6.60;;;17.30;99.90;;;;;;5039712;28;20036;-78
2022/07/01 04:02:33;;;;;;;7.40;6.57;;;17.30;99.90;;;;;;5033495;28;20383;-78
2022/07/01 04:04:59;;;;;;;8.25;7.55;;;17.30;99.90;;;;;;5036479;28;20096;-78
2022/07/01 04:07:26;;;;;;;9.70;7.53;;;17.30;99.90;;;;;;5035196;28;20583;-78
2022/07/01 04:09:52;;;;;;;8.40;7.47;;;17.30;99.90;;;;;;5039474;28;20024;-78
2022/07/01 04:12:18;;;;;;;8.02;7.22;;;17.30;99.90;;;;;;5040129;28;20074;-78
2022/07/01 04:14:44;;;;;;;9.05;8.25;;;17.20;99.90;;;;;;5036994;28;20433;-78
2022/07/01 04:17:11;;;;;;;8.35;7.55;;;17.20;99.90;;;;;;5032860;28;20025;-78
2022/07/01 04:19:37;;;;;;;8.15;7.45;;;17.20;99.90;;;;;;5038293;28;20048;-78
2022/07/01 04:24:46;;;;;;;9.80;8.27;;;17.20;99.90;;;;;;5047040;28;20042;-78
2022/07/01 04:27:12;;;;;;;9.50;8.60;;;17.20;99.90;;;;;;5047798;28;20043;-78
2022/07/01 04:29:38;;;;;;;9.13;8.30;;;17.20;99.90;;;;;;5033782;28;20025;-77
2022/07/01 04:32:04;;;;;;;8.70;7.80;;;17.10;99.90;;;;;;5044440;28;20516;-78
2022/07/01 04:34:29;;;;;;;8.75;7.85;;;17.10;99.90;;;;;;5033511;28;20045;-77
2022/07/01 04:36:55;;;;;;;8.93;8.02;;;17.10;99.90;;;;;;5038949;28;20037;-78
2022/07/01 04:39:21;;;;;;;8.05;7.25;;;17.10;99.90;;;;;;5035122;28;20044;-78
2022/07/01 04:41:59;;;;;;;8.07;7.28;;;17.20;99.90;;;;;;5043476;28;20508;-78
2022/07/01 04:44:25;;;;;;;8.02;7.22;;;17.20;99.90;;;;;;5043778;28;20024;-78
2022/07/01 04:46:50;;;;;;;8.65;7.75;;;17.20;99.90;;;;;;5034816;28;20053;-78
2022/07/01 04:49:16;;;;;;;7.85;7.05;;;17.20;99.90;;;;;;5029315;28;20105;-80
2022/07/01 04:51:42;;;;;;;6.88;6.25;;;17.20;99.90;;;;;;5047419;28;20151;-80
2022/07/01 04:54:08;;;;;;;8.48;6.97;;;17.20;99.90;;;;;;5039428;28;20049;-80
2022/07/01 04:56:35;;;;;;;9.75;6.82;;;17.20;99.90;;;;;;5043597;28;20040;-80
2022/07/01 04:59:01;;;;;;;7.80;6.57;;;17.30;99.90;;;;;;5040967;28;20056;-80
2022/07/01 05:01:28;;;;;;;6.38;5.43;;;17.30;99.90;;;;;;5041746;28;20028;-80
2022/07/01 05:03:54;;;;;;;6.40;5.72;;;17.30;99.90;;;;;;5051385;28;20028;-80
2022/07/01 05:06:19;;;;;;;7.10;5.90;;;17.30;99.90;;;;;;5034312;28;20022;-81
2022/07/01 05:08:45;;;;;;;7.47;5.82;;;17.30;99.90;;;;;;5030838;28;20103;-81
2022/07/01 05:11:11;;;;;;;6.45;5.40;;;17.30;99.90;;;;;;5032804;28;20400;-81
2022/07/01 05:13:37;;;;;;;5.97;5.38;;;17.40;99.90;;;;;;5033698;28;20048;-81
2022/07/01 05:16:04;;;;;;;5.35;4.85;;;17.40;99.90;;;;;;5042516;28;20037;-81
2022/07/01 05:23:59;;;;;;;5.18;4.68;;;17.30;99.90;;;;;;5038949;28;20082;-80
2022/07/01 05:26:25;;;;;;;7.38;4.90;;;17.30;99.90;;;;;;5044000;28;20641;-80
2022/07/01 05:28:54;;;;;;;4.05;3.75;;;17.30;99.90;;;;;;5037978;28;20037;-80
2022/07/01 05:31:20;;;;;;;3.92;3.53;;;17.20;99.90;;;;;;5034365;28;20040;-80
2022/07/01 05:33:47;;;;;;;5.35;3.55;;;17.20;99.90;;;;;;5039057;28;20336;-80
2022/07/01 05:36:13;;;;;;;4.78;3.50;;;17.20;99.90;;;;;;5030334;28;20405;-80
2022/07/01 05:38:39;;;;;;;4.82;3.80;;;17.20;99.90;;;;;;5033384;28;20115;-81
2022/07/01 05:41:06;;;;;;;5.45;3.65;;;17.20;99.90;;;;;;5039199;28;20382;-81
2022/07/01 05:43:32;;;;;;;3.92;3.30;;;17.10;99.90;;;;;;5038319;28;20040;-81
2022/07/01 05:45:58;;;;;;;4.35;3.45;;;17.20;99.90;;;;;;5041513;28;20037;-81
2022/07/01 05:48:24;;;;;;;3.88;3.38;;;17.20;99.90;;;;;;5046091;28;20477;-81
2022/07/01 05:50:50;;;;;;;4.78;3.33;;;17.20;99.90;;;;;;5033858;28;20072;-81
2022/07/01 05:53:16;;;;;;;4.20;3.22;;;17.20;99.90;;;;;;5038524;28;20017;-81
2022/07/01 05:55:42;;;;;;;3.70;2.90;;;17.10;99.90;;;;;;5034402;28;20087;-81
2022/07/01 05:58:12;;;;;;;3.40;3.10;;;17.10;99.90;;;;;;5036973;28;20464;-81
2022/07/01 06:00:41;;;;;;;3.72;2.80;;;17.00;99.90;;;;;;5040656;28;20447;-81
2022/07/01 06:03:07;;;;;;;2.55;2.30;;;17.00;99.90;;;;;;5038036;28;20025;-81
2022/07/01 06:05:33;;;;;;;3.38;2.58;;;17.00;99.90;;;;;;5039985;28;20025;-82
2022/07/01 06:07:58;;;;;;;3.05;2.30;;;17.00;99.90;;;;;;5043748;28;20029;-82
2022/07/01 06:10:24;;;;;;;2.58;2.30;;;17.00;99.90;;;;;;5041243;28;20757;-82
2022/07/01 06:12:50;;;;;;;2.42;2.20;;;17.00;99.90;;;;;;5039552;28;20048;-82
2022/07/01 06:15:15;;;;;;;4.80;2.00;;;17.00;99.90;;;;;;5035435;28;20055;-82
2022/07/01 06:17:41;;;;;;;3.15;2.00;;;17.10;99.90;;;;;;5045040;28;20120;-82
2022/07/01 06:20:08;;;;;;;2.85;2.08;;;17.10;99.90;;;;;;5036632;28;20040;-82
2022/07/01 06:22:34;;;;;;;2.10;1.85;;;17.10;99.90;;;;;;5037627;28;20056;-82
2022/07/01 06:25:00;;;;;;;5.20;2.00;;;17.20;99.90;;;;;;5039141;28;20025;-82
2022/07/01 06:27:26;;;;;;;2.60;1.90;;;17.20;99.90;;;;;;5046726;28;20035;-82
2022/07/01 06:29:52;;;;;;;3.05;1.98;;;17.20;99.90;;;;;;5043204;28;20025;-82
2022/07/01 06:32:18;;;;;;;3.28;2.15;;;17.20;99.90;;;;;;5042749;28;20025;-82
2022/07/01 06:34:44;;;;;;;2.15;1.90;;;17.30;99.90;;;;;;5038676;28;20520;-82
2022/07/01 06:37:10;;;;;;;2.67;1.92;;;17.30;99.90;;;;;;5043928;28;20067;-82
2022/07/01 06:39:35;;;;;;;2.15;1.95;;;17.30;99.90;;;;;;5037052;28;20440;-81
2022/07/01 06:42:01;;;;;;;4.03;2.25;;;17.30;99.90;;;;;;5030469;28;20347;-78
2022/07/01 06:44:27;;;;;;;5.00;2.08;;;17.30;99.90;;;;;;5040264;28;20079;-78
2022/07/01 06:46:52;;;;;;;2.67;1.95;;;17.30;99.90;;;;;;5050222;28;20374;-78
2022/07/01 06:49:18;;;;;;;2.65;1.80;;;17.30;99.90;;;;;;5040411;28;20489;-77
2022/07/01 06:51:44;;;;;;;3.70;1.90;;;17.30;99.90;;;;;;5039791;28;20032;-77
2022/07/01 06:54:10;;;;;;;1.98;1.77;;;17.40;99.90;;;;;;5039401;28;20021;-77
2022/07/01 06:56:36;;;;;;;2.25;1.58;;;17.50;99.90;;;;;;5040927;28;20059;-77
2022/07/01 06:59:02;;;;;;;1.70;1.60;;;17.50;99.90;;;;;;5045206;28;20039;-77
2022/07/01 07:01:28;;;;;;;2.80;1.65;;;17.60;99.90;;;;;;5036926;28;20420;-77
2022/07/01 07:03:53;;;;;;;1.83;1.50;;;17.60;99.90;;;;;;5047521;28;20012;-77
2022/07/01 07:06:19;;;;;;;2.58;1.83;;;17.60;99.90;;;;;;5044815;28;20029;-77
2022/07/01 07:08:45;;;;;;;2.53;1.60;;;17.60;99.90;;;;;;5037471;28;20033;-77
2022/07/01 07:11:11;;;;;;;2.22;1.50;;;17.70;99.90;;;;;;5036103;28;20064;-77
2022/07/01 07:13:37;;;;;;;1.75;1.50;;;17.70;99.90;;;;;;5049481;28;20115;-77
2022/07/01 07:16:03;;;;;;;1.75;1.60;;;17.80;99.90;;;;;;5060998;28;20108;-77
2022/07/01 07:18:29;;;;;;;1.50;1.40;;;17.80;99.90;;;;;;5039833;28;20492;-76
2022/07/01 07:20:55;;;;;;;1.98;1.40;;;17.90;99.90;;;;;;5039543;28;20037;-77
2022/07/01 07:23:20;;;;;;;2.17;1.13;;;17.90;99.90;;;;;;5042320;28;20315;-77
2022/07/01 07:25:46;;;;;;;2.90;1.40;;;18.00;99.90;;;;;;5042711;28;20112;-77
2022/07/01 07:28:12;;;;;;;1.48;1.38;;;18.10;99.90;;;;;;5034707;28;20503;-77
2022/07/01 07:30:38;;;;;;;2.03;1.50;;;18.20;99.90;;;;;;5050715;28;20043;-77
2022/07/01 07:33:04;;;;;;;1.50;1.40;;;18.20;99.90;;;;;;5047698;28;20037;-77
2022/07/01 07:35:29;;;;;;;2.95;1.50;;;18.30;99.90;;;;;;5040986;28;20409;-77
2022/07/01 07:37:55;;;;;;;1.83;1.50;;;18.30;99.90;;;;;;5031349;28;20091;-77
2022/07/01 07:40:21;;;;;;;1.60;1.50;;;18.40;99.90;;;;;;5046514;28;20358;-77
2022/07/01 07:42:47;;;;;;;1.70;1.60;;;18.30;99.90;;;;;;5049446;28;20037;-77
2022/07/01 07:45:14;;;;;;;1.60;1.50;;;18.20;99.90;;;;;;5039891;28;20029;-77
2022/07/01 07:47:44;;;;;;;1.73;1.45;;;18.10;99.90;;;;;;5044254;28;20033;-77
2022/07/01 07:50:11;;;;;;;1.58;1.40;;;18.00;99.90;;;;;;5052676;28;20417;-78
2022/07/01 07:52:37;;;;;;;1.75;1.63;;;18.00;99.90;;;;;;5045016;28;20497;-78
2022/07/01 07:55:04;;;;;;;2.50;1.58;;;18.00;99.90;;;;;;5037290;28;20615;-77
2022/07/01 07:57:30;;;;;;;1.30;1.20;;;18.00;99.90;;;;;;5045838;28;20027;-77
2022/07/01 07:59:56;;;;;;;2.40;1.42;;;18.10;99.90;;;;;;5037622;28;20032;-77
2022/07/01 08:02:21;;;;;;;1.30;1.20;;;18.30;99.90;;;;;;5050502;28;20852;-77
2022/07/01 08:04:47;;;;;;;2.90;1.25;;;18.30;99.90;;;;;;5047408;28;20039;-77
2022/07/01 08:07:12;;;;;;;2.15;1.30;;;18.40;99.90;;;;;;5046189;28;20116;-77
2022/07/01 08:09:38;;;;;;;1.35;1.25;;;18.50;99.90;;;;;;5037709;28;20059;-77
2022/07/01 08:12:04;;;;;;;1.60;1.30;;;18.50;99.90;;;;;;5026785;28;20021;-77
2022/07/01 08:14:30;;;;;;;1.52;1.20;;;18.40;99.90;;;;;;5038118;28;20371;-75
2022/07/01 08:16:56;;;;;;;3.22;1.27;;;18.40;99.90;;;;;;5039479;28;20040;-79
2022/07/01 08:19:22;;;;;;;2.63;1.40;;;18.40;99.90;;;;;;5033891;28;20535;-76
2022/07/01 08:21:48;;;;;;;2.00;1.50;;;18.30;99.90;;;;;;5043877;28;20037;-74
2022/07/01 08:24:13;;;;;;;1.60;1.50;;;18.30;99.90;;;;;;5046516;28;20513;-77
2022/07/01 08:26:39;;;;;;;4.05;1.48;;;18.30;99.90;;;;;;5030223;28;20033;-77
2022/07/01 08:29:04;;;;;;;1.95;1.60;;;18.30;99.90;;;;;;5024577;28;20040;-79
2022/07/01 08:31:31;;;;;;;4.20;1.60;;;18.30;99.90;;;;;;5039212;28;20393;-75
2022/07/01 08:33:57;;;;;;;1.90;1.30;;;18.30;99.90;;;;;;5042556;28;20456;-75
2022/07/01 08:36:23;;;;;;;2.67;1.50;;;18.40;99.90;;;;;;5030562;28;20664;-77
2022/07/01 08:38:49;;;;;;;2.53;1.52;;;18.40;99.90;;;;;;5025343;28;20120;-78
2022/07/01 08:41:15;;;;;;;3.65;1.60;;;18.50;99.90;;;;;;5043902;28;20029;-78
2022/07/01 08:43:41;;;;;;;2.30;1.40;;;18.60;99.90;;;;;;5045418;28;20107;-82
2022/07/01 08:46:07;;;;;;;1.52;1.38;;;18.60;99.90;;;;;;5044733;28;20116;-76
2022/07/01 08:48:34;;;;;;;2.00;1.50;;;18.60;99.90;;;;;;5030549;28;20142;-76
2022/07/01 08:51:03;;;;;;;1.30;1.20;;;18.60;99.90;;;;;;5040304;28;20037;-77
2022/07/01 08:53:29;;;;;;;1.90;1.40;;;18.70;99.90;;;;;;5039427;28;20032;-75
2022/07/01 08:58:39;;;;;;;1.13;1.10;;;18.70;99.90;;;;;;5036648;28;20068;-78
2022/07/01 09:01:26;;;;;;;1.55;1.23;;;18.80;99.90;;;;;;5035125;28;20033;-77
2022/07/01 09:03:53;;;;;;;1.75;1.17;;;18.80;99.90;;;;;;5041899;28;20406;-76
2022/07/01 09:06:20;;;;;;;2.35;1.25;;;18.80;99.90;;;;;;5040325;28;20035;-79
2022/07/01 09:08:47;;;;;;;1.88;1.30;;;18.90;99.90;;;;;;5036763;28;20025;-74
2022/07/01 09:11:17;;;;;;;1.40;1.20;;;18.90;99.90;;;;;;5032417;28;20911;-74
2022/07/01 09:13:44;;;;;;;2.78;1.30;;;19.00;99.90;;;;;;5041659;28;20029;-77
2022/07/01 09:16:14;;;;;;;1.33;1.23;;;19.20;99.90;;;;;;5039102;28;20075;-76
2022/07/01 09:18:40;;;;;;;1.67;1.40;;;19.40;99.90;;;;;;5034813;28;20048;-77
2022/07/01 09:21:13;;;;;;;4.35;1.15;;;19.60;99.90;;;;;;5035584;28;20057;-79
2022/07/01 09:23:39;;;;;;;1.15;1.15;;;19.90;99.90;;;;;;5041464;28;20029;-77
2022/07/01 09:26:05;;;;;;;2.08;1.30;;;20.10;99.90;;;;;;5037964;28;20033;-76
2022/07/01 09:28:30;;;;;;;2.05;1.10;;;20.30;99.90;;;;;;5037258;28;20068;-77
2022/07/01 09:30:57;;;;;;;3.28;0.93;;;20.30;99.30;;;;;;5037614;28;20046;-78
2022/07/01 09:33:24;;;;;;;1.30;1.20;;;20.40;99.30;;;;;;5039758;28;20036;-80
2022/07/01 09:35:50;;;;;;;1.25;1.10;;;20.40;99.30;;;;;;5044853;28;20040;-79
2022/07/01 09:38:18;;;;;;;3.58;1.40;;;20.40;98.60;;;;;;5044047;28;20031;-76
2022/07/01 09:40:53;;;;;;;1.92;1.55;;;20.30;99.00;;;;;;5040064;28;20117;-80
2022/07/01 09:43:20;;;;;;;1.42;1.33;;;20.20;99.10;;;;;;5045803;28;20060;-76
2022/07/01 09:46:00;;;;;;;2.13;1.60;;;20.20;98.60;;;;;;5044454;28;20417;-78
2022/07/01 09:48:32;;;;;;;2.80;1.80;;;20.10;98.60;;;;;;5035384;28;20036;-78
2022/07/01 09:50:58;;;;;;;3.92;1.85;;;20.10;98.40;;;;;;5041918;28;20025;-75
2022/07/01 09:53:24;;;;;;;3.63;1.70;;;20.00;98.70;;;;;;5035417;28;20563;-77
2022/07/01 09:55:50;;;;;;;2.25;1.95;;;20.00;99.40;;;;;;5043016;28;20036;-77
2022/07/01 09:58:15;;;;;;;2.95;1.88;;;19.90;99.90;;;;;;5040797;28;20418;-78
2022/07/01 10:00:42;;;;;;;2.47;2.10;;;19.70;99.90;;;;;;5035230;28;20030;-79
2022/07/01 10:03:08;;;;;;;3.17;2.50;;;19.60;99.90;;;;;;5039718;28;20025;-79
2022/07/01 10:05:56;;;;;;;3.17;2.33;;;19.50;99.90;;;;;;5043142;28;20422;-79
2022/07/01 10:08:59;;;;;;;4.07;2.45;;;19.50;99.90;;;;;;5061857;28;20028;-76
2022/07/01 10:11:57;;;;;;;2.28;2.00;;;19.30;99.90;;;;;;4999692;28;20045;-76
2022/07/01 10:14:23;;;;;;;4.60;2.00;;;19.10;99.90;;;;;;5036316;28;20051;-75
2022/07/01 10:16:49;;;;;;;3.35;2.10;;;19.00;99.90;;;;;;5036253;28;20485;-77
2022/07/01 10:19:20;;;;;;;2.88;2.20;;;18.90;99.90;;;;;;5043968;28;20043;-78
2022/07/01 10:21:46;;;;;;;2.85;1.80;;;18.80;99.90;;;;;;5048710;28;20509;-77
2022/07/01 10:24:13;;;;;;;2.15;1.95;;;18.80;99.90;;;;;;5044683;28;20025;-78
2022/07/01 10:26:40;;;;;;;2.50;2.00;;;18.80;99.90;;;;;;5036810;28;20092;-78
2022/07/01 10:29:32;;;;;;;2.75;2.08;;;18.80;99.90;;;;;;5026702;28;20442;-78
2022/07/01 10:32:11;;;;;;;4.80;2.40;;;18.80;99.90;;;;;;5035108;28;20060;-78
2022/07/01 10:34:39;;;;;;;2.97;2.08;;;19.00;99.90;;;;;;5047372;28;20056;-77
2022/07/01 10:37:10;;;;;;;3.75;2.30;;;19.00;99.90;;;;;;5036536;28;20087;-77
2022/07/01 10:39:57;;;;;;;3.25;2.33;;;19.00;99.90;;;;;;5034577;28;20497;-77
2022/07/01 10:42:28;;;;;;;3.40;2.08;;;19.10;99.90;;;;;;5052756;28;20177;-77
2022/07/01 10:45:11;;;;;;;2.72;2.00;;;19.20;99.90;;;;;;5028048;28;20109;-77
2022/07/01 10:47:38;;;;;;;5.70;2.13;;;19.20;99.90;;;;;;5029256;28;20033;-77
2022/07/01 10:50:16;;;;;;;3.17;2.28;;;19.30;99.90;;;;;;5036560;28;20029;-77
2022/07/01 10:53:14;;;;;;;3.30;3.00;;;19.30;99.90;;;;;;5033919;28;20045;-77
2022/07/01 10:55:45;;;;;;;5.55;4.60;;;19.30;99.90;;;;;;4992873;28;20505;-77
2022/07/01 10:58:11;;;;;;;5.22;4.68;;;19.20;99.90;;;;;;5034846;28;20037;-77
2022/07/01 11:00:41;;;;;;;5.75;5.25;;;19.10;99.90;;;;;;5035902;28;20025;-77
2022/07/01 11:03:15;;;;;;;7.10;5.57;;;19.00;99.90;;;;;;5031279;28;20022;-77
2022/07/01 11:05:43;;;;;;;6.63;5.20;;;19.00;99.90;;;;;;5046490;28;20052;-77
2022/07/01 11:08:09;;;;;;;8.88;5.60;;;19.00;99.90;;;;;;5050784;28;20102;-77
2022/07/01 11:10:35;;;;;;;6.60;5.05;;;19.00;99.90;;;;;;5044993;28;20033;-77
2022/07/01 11:13:03;;;;;;;5.78;5.28;;;19.00;99.90;;;;;;5027247;28;20031;-77
2022/07/01 11:15:29;;;;;;;5.90;5.30;;;19.10;99.90;;;;;;5047758;28;20056;-77
2022/07/01 11:17:56;;;;;;;6.95;5.50;;;19.00;99.90;;;;;;5039732;28;20028;-77
2022/07/01 11:20:23;;;;;;;7.63;5.75;;;19.00;99.90;;;;;;5035614;28;20030;-77
2022/07/01 11:22:50;;;;;;;5.80;5.30;;;19.00;99.90;;;;;;5027239;28;20481;-77
2022/07/01 11:25:18;;;;;;;5.53;5.03;;;19.10;99.90;;;;;;5037076;28;20112;-77
2022/07/01 11:27:51;;;;;;;5.85;5.35;;;19.10;99.90;;;;;;5032657;28;20087;-77
2022/07/01 11:30:17;;;;;;;;;;;19.30;99.90;;;;;;5044982;28;20776;-77
2022/07/01 11:32:47;;;;;;;8.73;5.68;;;19.30;99.90;;;;;;5047312;28;19955;-78
2022/07/01 11:40:54;;;;;;;7.75;6.18;;;19.10;99.90;;;;;;5044368;28;20440;-77
2022/07/01 11:43:26;;;;;;;8.00;6.25;;;18.80;99.90;;;;;;5037311;28;20040;-73
2022/07/01 11:45:54;;;;;;;6.93;6.32;;;18.80;99.90;;;;;;5028335;28;20072;-73
2022/07/01 11:48:32;;;;;;;8.75;6.93;;;18.80;99.90;;;;;;5034494;28;20130;-73
2022/07/01 11:50:59;;;;;;;7.93;7.18;;;18.80;99.90;;;;;;5041994;28;20388;-73
2022/07/01 11:53:25;;;;;;;7.85;7.15;;;18.90;99.90;;;;;;5050678;28;20447;-73
2022/07/01 11:55:51;;;;;;;9.40;7.32;;;19.00;99.90;;;;;;5042012;28;20485;-73
2022/07/01 11:58:17;;;;;;;7.85;7.13;;;19.20;99.90;;;;;;5037995;28;20032;-74
2022/07/01 12:00:43;;;;;;;7.22;6.60;;;19.30;99.90;;;;;;5028605;28;20466;-73
2022/07/01 12:03:09;;;;;;;8.07;7.28;;;19.40;99.90;;;;;;5039946;28;20040;-74
2022/07/01 12:05:35;;;;;;;8.98;7.25;;;19.50;99.90;;;;;;5040297;28;20041;-73
2022/07/01 12:08:02;;;;;;;7.50;6.53;;;19.60;99.90;;;;;;5036547;28;20021;-74
2022/07/01 12:10:28;;;;;;;7.55;6.85;;;19.70;99.90;;;;;;5039029;28;20416;-73
2022/07/01 12:12:54;;;;;;;7.22;6.53;;;19.80;99.90;;;;;;5028864;28;20039;-73
2022/07/01 12:15:20;;;;;;;7.28;6.63;;;20.00;99.90;;;;;;5043762;28;20029;-73
2022/07/01 12:17:46;;;;;;;8.98;7.35;;;20.20;99.90;;;;;;5043281;28;20025;-73
2022/07/01 12:20:12;;;;;;;8.77;7.20;;;20.40;99.90;;;;;;5039869;28;20037;-74
2022/07/01 12:22:37;;;;;;;8.30;7.28;;;20.70;99.90;;;;;;5038780;28;20106;-74
2022/07/01 12:25:11;;;;;;;7.90;7.10;;;20.90;99.90;;;;;;5034254;28;20032;-72
2022/07/01 12:27:39;;;;;;;7.45;6.47;;;21.00;99.90;;;;;;5042481;28;20029;-72
2022/07/01 12:30:07;;;;;;;7.90;6.50;;;21.10;99.90;;;;;;5026884;28;20384;-72
2022/07/01 12:32:36;;;;;;;7.15;6.22;;;21.10;99.90;;;;;;5037368;28;20025;-73
2022/07/01 12:35:33;;;;;;;6.75;6.03;;;21.10;99.90;;;;;;5037958;28;20428;-73
2022/07/01 12:37:53;;;;;;;6.47;5.85;;;20.90;99.90;;;;;;5045418;28;20036;-72
2022/07/01 12:40:25;;;;;;;7.20;6.50;;;20.90;99.90;;;;;;5036530;28;20385;-72
2022/07/01 12:42:50;;;;;;;7.78;6.38;;;21.00;99.90;;;;;;5036473;28;20044;-72
2022/07/01 12:45:22;;;;;;;6.47;5.88;;;21.30;99.90;;;;;;5034193;28;20030;-73
2022/07/01 12:47:49;;;;;;;6.90;6.20;;;21.60;99.90;;;;;;5037856;28;20083;-73
2022/07/01 12:50:31;;;;;;;6.90;6.18;;;21.90;99.90;;;;;;5035675;28;20108;-73
2022/07/01 12:53:11;;;;;;;10.38;5.80;;;22.10;99.90;;;;;;5030132;28;20102;-73
2022/07/01 12:55:43;;;;;;;6.57;5.43;;;22.10;99.90;;;;;;5037128;28;20444;-73
2022/07/01 12:58:17;;;;;;;6.00;5.40;;;22.10;99.90;;;;;;5035837;28;20037;-72
2022/07/01 13:00:45;;;;;;;8.18;5.30;;;21.90;99.70;;;;;;5034882;28;20557;-72
2022/07/01 13:03:11;;;;;;;5.22;4.82;;;21.90;99.70;;;;;;5030482;28;20045;-73
2022/07/01 13:05:39;;;;;;;6.00;5.38;;;21.80;99.40;;;;;;5031011;28;20033;-73
2022/07/01 13:08:06;;;;;;;6.60;4.95;;;21.90;99.10;;;;;;5040417;28;20048;-73